sensor_id;sensor_type;location;lat;lon;timestamp;pressure;altitude;pressure_sealevel;temperature;humidity
83424;BME280;73355;49.044;8.686;2024-01-07T00:02:11;99117.38;;;5.97;79.31
83424;BME280;73355;49.044;8.686;2024-01-07T00:04:37;99119.28;;;6.00;79.40
83424;BME280;73355;49.044;8.686;2024-01-07T00:07:04;99120.84;;;5.98;78.66
83424;BME280;73355;49.044;8.686;2024-01-07T00:09:29;99119.69;;;5.92;79.01
83424;BME280;73355;49.044;8.686;2024-01-07T00:11:55;99114.28;;;5.88;79.14
83424;BME280;73355;49.044;8.686;2024-01-07T00:14:20;99125.84;;;5.89;78.98
83424;BME280;73355;49.044;8.686;2024-01-07T00:16:45;99123.53;;;5.87;79.06
83424;BME280;73355;49.044;8.686;2024-01-07T00:19:11;99116.19;;;5.88;79.36
83424;BME280;73355;49.044;8.686;2024-01-07T00:21:36;99129.72;;;5.91;79.44
83424;BME280;73355;49.044;8.686;2024-01-07T00:24:01;99123.16;;;5.92;79.34
83424;BME280;73355;49.044;8.686;2024-01-07T00:26:27;99123.16;;;5.92;79.13
83424;BME280;73355;49.044;8.686;2024-01-07T00:28:52;99131.63;;;5.94;79.20
83424;BME280;73355;49.044;8.686;2024-01-07T00:31:17;99123.16;;;5.96;79.21
83424;BME280;73355;49.044;8.686;2024-01-07T00:33:43;99125.84;;;5.96;79.51
83424;BME280;73355;49.044;8.686;2024-01-07T00:36:08;99123.13;;;5.99;79.17
83424;BME280;73355;49.044;8.686;2024-01-07T00:38:33;99130.88;;;6.01;79.07
83424;BME280;73355;49.044;8.686;2024-01-07T00:40:59;99127.00;;;6.02;79.17
83424;BME280;73355;49.044;8.686;2024-01-07T00:43:24;99128.19;;;5.97;79.11
83424;BME280;73355;49.044;8.686;2024-01-07T00:45:49;99126.22;;;5.94;79.38
83424;BME280;73355;49.044;8.686;2024-01-07T00:48:15;99124.31;;;5.91;79.23
83424;BME280;73355;49.044;8.686;2024-01-07T00:50:41;99130.06;;;5.86;79.10
83424;BME280;73355;49.044;8.686;2024-01-07T00:53:07;99123.13;;;5.85;79.45
83424;BME280;73355;49.044;8.686;2024-01-07T00:55:32;99129.69;;;5.84;79.11
83424;BME280;73355;49.044;8.686;2024-01-07T00:57:57;99125.06;;;5.85;79.50
83424;BME280;73355;49.044;8.686;2024-01-07T01:00:23;99133.53;;;5.83;79.64
83424;BME280;73355;49.044;8.686;2024-01-07T01:02:48;99128.94;;;5.87;79.71
83424;BME280;73355;49.044;8.686;2024-01-07T01:05:13;99136.63;;;5.85;79.73
83424;BME280;73355;49.044;8.686;2024-01-07T01:07:39;99133.16;;;5.85;79.77
83424;BME280;73355;49.044;8.686;2024-01-07T01:10:04;99132.38;;;5.84;79.73
83424;BME280;73355;49.044;8.686;2024-01-07T01:12:30;99135.84;;;5.85;79.65
83424;BME280;73355;49.044;8.686;2024-01-07T01:14:55;99143.19;;;5.84;79.87
83424;BME280;73355;49.044;8.686;2024-01-07T01:17:20;99140.84;;;5.82;79.52
83424;BME280;73355;49.044;8.686;2024-01-07T01:19:46;99138.56;;;5.85;79.80
83424;BME280;73355;49.044;8.686;2024-01-07T01:22:11;99145.09;;;5.83;80.12
83424;BME280;73355;49.044;8.686;2024-01-07T01:24:36;99142.81;;;5.86;79.91
83424;BME280;73355;49.044;8.686;2024-01-07T01:27:02;99146.66;;;5.85;79.71
83424;BME280;73355;49.044;8.686;2024-01-07T01:29:27;99145.50;;;5.82;79.98
83424;BME280;73355;49.044;8.686;2024-01-07T01:31:52;99141.25;;;5.81;79.57
83424;BME280;73355;49.044;8.686;2024-01-07T01:34:18;99148.94;;;5.75;79.60
83424;BME280;73355;49.044;8.686;2024-01-07T01:36:43;99142.81;;;5.75;80.02
83424;BME280;73355;49.044;8.686;2024-01-07T01:39:08;99148.22;;;5.75;80.19
83424;BME280;73355;49.044;8.686;2024-01-07T01:41:34;99145.50;;;5.75;80.11
83424;BME280;73355;49.044;8.686;2024-01-07T01:44:00;99150.91;;;5.75;80.30
83424;BME280;73355;49.044;8.686;2024-01-07T01:46:26;99147.81;;;5.73;80.38
83424;BME280;73355;49.044;8.686;2024-01-07T01:48:52;99148.97;;;5.72;80.49
83424;BME280;73355;49.044;8.686;2024-01-07T01:51:18;99154.75;;;5.74;80.18
83424;BME280;73355;49.044;8.686;2024-01-07T01:53:45;99148.97;;;5.72;80.06
83424;BME280;73355;49.044;8.686;2024-01-07T01:56:10;99142.03;;;5.67;80.45
83424;BME280;73355;49.044;8.686;2024-01-07T01:58:36;99143.94;;;5.60;80.39
83424;BME280;73355;49.044;8.686;2024-01-07T02:01:03;99161.28;;;5.55;80.45
83424;BME280;73355;49.044;8.686;2024-01-07T02:03:28;99150.09;;;5.53;80.50
83424;BME280;73355;49.044;8.686;2024-01-07T02:05:54;99153.94;;;5.49;80.45
83424;BME280;73355;49.044;8.686;2024-01-07T02:08:20;99159.72;;;5.47;80.75
83424;BME280;73355;49.044;8.686;2024-01-07T02:10:46;99153.56;;;5.50;80.82
83424;BME280;73355;49.044;8.686;2024-01-07T02:13:11;99162.06;;;5.52;80.86
83424;BME280;73355;49.044;8.686;2024-01-07T02:15:36;99166.69;;;5.52;80.95
83424;BME280;73355;49.044;8.686;2024-01-07T02:18:02;99161.28;;;5.52;80.72
83424;BME280;73355;49.044;8.686;2024-01-07T02:20:27;99165.50;;;5.49;81.06
83424;BME280;73355;49.044;8.686;2024-01-07T02:22:53;99167.84;;;5.51;80.93
83424;BME280;73355;49.044;8.686;2024-01-07T02:25:18;99172.47;;;5.47;80.82
83424;BME280;73355;49.044;8.686;2024-01-07T02:27:44;99170.50;;;5.44;80.64
83424;BME280;73355;49.044;8.686;2024-01-07T02:30:09;99164.72;;;5.41;80.93
83424;BME280;73355;49.044;8.686;2024-01-07T02:32:35;99170.88;;;5.38;80.64
83424;BME280;73355;49.044;8.686;2024-01-07T02:35:02;99163.53;;;5.35;81.23
83424;BME280;73355;49.044;8.686;2024-01-07T02:37:27;99157.41;;;5.35;81.42
83424;BME280;73355;49.044;8.686;2024-01-07T02:39:53;99170.09;;;5.38;81.23
83424;BME280;73355;49.044;8.686;2024-01-07T02:42:18;99163.94;;;5.37;81.29
83424;BME280;73355;49.044;8.686;2024-01-07T02:44:43;99170.88;;;5.35;81.19
83424;BME280;73355;49.044;8.686;2024-01-07T02:47:09;99168.19;;;5.35;80.97
83424;BME280;73355;49.044;8.686;2024-01-07T02:49:34;99170.88;;;5.38;81.13
83424;BME280;73355;49.044;8.686;2024-01-07T02:51:59;99168.97;;;5.39;81.14
83424;BME280;73355;49.044;8.686;2024-01-07T02:54:25;99163.94;;;5.37;81.12
83424;BME280;73355;49.044;8.686;2024-01-07T02:56:50;99163.94;;;5.37;81.30
83424;BME280;73355;49.044;8.686;2024-01-07T02:59:15;99164.72;;;5.38;80.84
83424;BME280;73355;49.044;8.686;2024-01-07T03:01:41;99169.34;;;5.37;80.83
83424;BME280;73355;49.044;8.686;2024-01-07T03:04:09;99164.72;;;5.34;81.11
83424;BME280;73355;49.044;8.686;2024-01-07T03:06:35;99172.41;;;5.36;81.08
83424;BME280;73355;49.044;8.686;2024-01-07T03:09:01;99170.09;;;5.38;81.06
83424;BME280;73355;49.044;8.686;2024-01-07T03:11:26;99175.50;;;5.38;80.90
83424;BME280;73355;49.044;8.686;2024-01-07T03:13:51;99177.44;;;5.37;80.80
83424;BME280;73355;49.044;8.686;2024-01-07T03:16:24;99175.09;;;5.36;80.84
83424;BME280;73355;49.044;8.686;2024-01-07T03:18:50;99177.44;;;5.34;81.06
83424;BME280;73355;49.044;8.686;2024-01-07T03:21:19;99172.81;;;5.34;80.85
83424;BME280;73355;49.044;8.686;2024-01-07T03:23:45;99176.28;;;5.38;81.37
83424;BME280;73355;49.044;8.686;2024-01-07T03:26:11;99173.97;;;5.40;80.99
83424;BME280;73355;49.044;8.686;2024-01-07T03:28:36;99174.31;;;5.35;81.26
83424;BME280;73355;49.044;8.686;2024-01-07T03:31:10;99182.44;;;5.39;81.23
83424;BME280;73355;49.044;8.686;2024-01-07T03:33:37;99177.06;;;5.39;81.45
83424;BME280;73355;49.044;8.686;2024-01-07T03:36:10;99168.94;;;5.35;80.91
83424;BME280;73355;49.044;8.686;2024-01-07T03:38:36;99172.03;;;5.37;81.02
83424;BME280;73355;49.044;8.686;2024-01-07T03:41:02;99167.03;;;5.39;81.38
83424;BME280;73355;49.044;8.686;2024-01-07T03:43:27;99180.16;;;5.45;81.18
83424;BME280;73355;49.044;8.686;2024-01-07T03:45:53;99179.78;;;5.50;81.14
83424;BME280;73355;49.044;8.686;2024-01-07T03:48:18;99184.81;;;5.51;80.79
83424;BME280;73355;49.044;8.686;2024-01-07T03:50:44;99187.50;;;5.51;80.88
83424;BME280;73355;49.044;8.686;2024-01-07T03:53:09;99188.66;;;5.54;80.94
83424;BME280;73355;49.044;8.686;2024-01-07T03:55:34;99189.03;;;5.59;81.22
83424;BME280;73355;49.044;8.686;2024-01-07T03:57:59;99191.38;;;5.64;80.72
83424;BME280;73355;49.044;8.686;2024-01-07T04:00:25;99195.25;;;5.67;81.00
83424;BME280;73355;49.044;8.686;2024-01-07T04:02:50;99205.25;;;5.70;80.74
83424;BME280;73355;49.044;8.686;2024-01-07T04:05:15;99201.03;;;5.72;80.45
83424;BME280;73355;49.044;8.686;2024-01-07T04:07:40;99210.28;;;5.68;80.05
83424;BME280;73355;49.044;8.686;2024-01-07T04:10:06;99208.75;;;5.67;79.83
83424;BME280;73355;49.044;8.686;2024-01-07T04:12:34;99207.56;;;5.64;80.00
83424;BME280;73355;49.044;8.686;2024-01-07T04:14:59;99206.03;;;5.60;80.19
83424;BME280;73355;49.044;8.686;2024-01-07T04:17:24;99203.69;;;5.58;79.77
83424;BME280;73355;49.044;8.686;2024-01-07T04:19:51;99209.47;;;5.53;79.97
83424;BME280;73355;49.044;8.686;2024-01-07T04:22:16;99214.88;;;5.46;80.23
83424;BME280;73355;49.044;8.686;2024-01-07T04:24:41;99213.28;;;5.38;80.17
83424;BME280;73355;49.044;8.686;2024-01-07T04:27:07;99210.59;;;5.34;80.38
83424;BME280;73355;49.044;8.686;2024-01-07T04:29:32;99217.91;;;5.34;80.63
83424;BME280;73355;49.044;8.686;2024-01-07T04:31:58;99217.50;;;5.28;80.42
83424;BME280;73355;49.044;8.686;2024-01-07T04:34:23;99215.19;;;5.27;80.94
83424;BME280;73355;49.044;8.686;2024-01-07T04:36:49;99225.97;;;5.27;80.94
83424;BME280;73355;49.044;8.686;2024-01-07T04:39:15;99226.34;;;5.25;80.98
83424;BME280;73355;49.044;8.686;2024-01-07T04:41:40;99227.88;;;5.26;81.20
83424;BME280;73355;49.044;8.686;2024-01-07T04:44:05;99229.03;;;5.22;81.02
83424;BME280;73355;49.044;8.686;2024-01-07T04:46:34;99236.72;;;5.20;81.18
83424;BME280;73355;49.044;8.686;2024-01-07T04:49:00;99235.97;;;5.23;81.67
83424;BME280;73355;49.044;8.686;2024-01-07T04:51:25;99236.34;;;5.21;81.26
83424;BME280;73355;49.044;8.686;2024-01-07T04:53:50;99237.88;;;5.19;81.44
83424;BME280;73355;49.044;8.686;2024-01-07T04:56:16;99235.56;;;5.21;81.75
83424;BME280;73355;49.044;8.686;2024-01-07T04:58:41;99241.75;;;5.21;81.63
83424;BME280;73355;49.044;8.686;2024-01-07T05:01:06;99245.59;;;5.20;81.59
83424;BME280;73355;49.044;8.686;2024-01-07T05:03:31;99241.34;;;5.19;81.63
83424;BME280;73355;49.044;8.686;2024-01-07T05:05:57;99242.13;;;5.16;81.72
83424;BME280;73355;49.044;8.686;2024-01-07T05:08:22;99242.47;;;5.15;81.62
83424;BME280;73355;49.044;8.686;2024-01-07T05:10:47;99250.16;;;5.13;81.83
83424;BME280;73355;49.044;8.686;2024-01-07T05:13:13;99250.22;;;5.16;81.74
83424;BME280;73355;49.044;8.686;2024-01-07T05:15:38;99249.06;;;5.21;81.82
83424;BME280;73355;49.044;8.686;2024-01-07T05:18:07;99251.78;;;5.24;81.78
83424;BME280;73355;49.044;8.686;2024-01-07T05:20:33;99249.47;;;5.23;81.13
83424;BME280;73355;49.044;8.686;2024-01-07T05:22:59;99255.66;;;5.23;81.43
83424;BME280;73355;49.044;8.686;2024-01-07T05:25:24;99257.16;;;5.24;81.79
83424;BME280;73355;49.044;8.686;2024-01-07T05:27:49;99258.34;;;5.23;81.48
83424;BME280;73355;49.044;8.686;2024-01-07T05:30:14;99261.81;;;5.24;81.65
83424;BME280;73355;49.044;8.686;2024-01-07T05:32:40;99256.78;;;5.22;81.36
83424;BME280;73355;49.044;8.686;2024-01-07T05:35:05;99259.13;;;5.24;81.36
83424;BME280;73355;49.044;8.686;2024-01-07T05:37:32;99261.00;;;5.20;81.77
83424;BME280;73355;49.044;8.686;2024-01-07T05:39:57;99263.31;;;5.18;81.41
83424;BME280;73355;49.044;8.686;2024-01-07T05:42:22;99266.03;;;5.18;81.41
83424;BME280;73355;49.044;8.686;2024-01-07T05:44:48;99263.69;;;5.20;81.75
83424;BME280;73355;49.044;8.686;2024-01-07T05:47:13;99266.81;;;5.18;81.29
83424;BME280;73355;49.044;8.686;2024-01-07T05:49:38;99267.53;;;5.19;81.49
83424;BME280;73355;49.044;8.686;2024-01-07T05:52:04;99269.09;;;5.16;81.27
83424;BME280;73355;49.044;8.686;2024-01-07T05:54:29;99284.09;;;5.14;81.46
83424;BME280;73355;49.044;8.686;2024-01-07T05:56:55;99274.44;;;5.13;81.72
83424;BME280;73355;49.044;8.686;2024-01-07T05:59:20;99279.47;;;5.14;81.51
83424;BME280;73355;49.044;8.686;2024-01-07T06:01:45;99279.88;;;5.20;82.11
83424;BME280;73355;49.044;8.686;2024-01-07T06:04:10;99281.44;;;5.21;81.85
83424;BME280;73355;49.044;8.686;2024-01-07T06:06:36;99282.63;;;5.23;81.68
83424;BME280;73355;49.044;8.686;2024-01-07T06:09:01;99285.34;;;5.27;81.75
83424;BME280;73355;49.044;8.686;2024-01-07T06:11:27;99288.03;;;5.30;81.50
83424;BME280;73355;49.044;8.686;2024-01-07T06:13:53;99283.44;;;5.34;81.36
83424;BME280;73355;49.044;8.686;2024-01-07T06:16:18;99290.38;;;5.35;81.19
83424;BME280;73355;49.044;8.686;2024-01-07T06:18:43;99291.53;;;5.34;81.01
83424;BME280;73355;49.044;8.686;2024-01-07T06:21:09;99294.25;;;5.34;80.95
83424;BME280;73355;49.044;8.686;2024-01-07T06:23:34;99298.09;;;5.33;80.84
83424;BME280;73355;49.044;8.686;2024-01-07T06:26:03;99298.09;;;5.33;81.00
83424;BME280;73355;49.044;8.686;2024-01-07T06:28:28;99294.25;;;5.34;80.97
83424;BME280;73355;49.044;8.686;2024-01-07T06:30:53;99305.03;;;5.38;80.71
83424;BME280;73355;49.044;8.686;2024-01-07T06:33:19;99304.25;;;5.34;80.75
83424;BME280;73355;49.044;8.686;2024-01-07T06:35:45;99304.63;;;5.32;81.12
83424;BME280;73355;49.044;8.686;2024-01-07T06:38:11;99313.09;;;5.31;80.62
83424;BME280;73355;49.044;8.686;2024-01-07T06:40:36;99310.78;;;5.29;80.94
83424;BME280;73355;49.044;8.686;2024-01-07T06:43:01;99309.63;;;5.30;80.95
83424;BME280;73355;49.044;8.686;2024-01-07T06:45:27;99319.28;;;5.31;80.82
83424;BME280;73355;49.044;8.686;2024-01-07T06:47:52;99321.59;;;5.33;81.20
83424;BME280;73355;49.044;8.686;2024-01-07T06:50:18;99320.44;;;5.34;81.19
83424;BME280;73355;49.044;8.686;2024-01-07T06:52:45;99331.63;;;5.32;80.68
83424;BME280;73355;49.044;8.686;2024-01-07T06:55:10;99327.38;;;5.31;80.71
83424;BME280;73355;49.044;8.686;2024-01-07T06:57:35;99332.75;;;5.31;80.73
83424;BME280;73355;49.044;8.686;2024-01-07T07:00:01;99341.22;;;5.30;80.81
83424;BME280;73355;49.044;8.686;2024-01-07T07:02:26;99330.84;;;5.32;80.86
83424;BME280;73355;49.044;8.686;2024-01-07T07:04:52;99345.09;;;5.29;80.64
83424;BME280;73355;49.044;8.686;2024-01-07T07:07:17;99348.56;;;5.29;80.74
83424;BME280;73355;49.044;8.686;2024-01-07T07:09:42;99350.09;;;5.30;80.96
83424;BME280;73355;49.044;8.686;2024-01-07T07:12:08;99354.72;;;5.30;81.12
83424;BME280;73355;49.044;8.686;2024-01-07T07:14:33;99352.41;;;5.28;80.74
83424;BME280;73355;49.044;8.686;2024-01-07T07:16:59;99358.19;;;5.30;80.60
83424;BME280;73355;49.044;8.686;2024-01-07T07:19:25;99357.06;;;5.31;80.99
83424;BME280;73355;49.044;8.686;2024-01-07T07:21:50;99357.06;;;5.31;80.59
83424;BME280;73355;49.044;8.686;2024-01-07T07:24:15;99365.94;;;5.35;80.88
83424;BME280;73355;49.044;8.686;2024-01-07T07:26:41;99369.44;;;5.39;80.74
83424;BME280;73355;49.044;8.686;2024-01-07T07:29:08;99368.31;;;5.48;81.19
83424;BME280;73355;49.044;8.686;2024-01-07T07:31:35;99377.22;;;5.55;81.00
83424;BME280;73355;49.044;8.686;2024-01-07T07:34:00;99387.25;;;5.58;80.16
83424;BME280;73355;49.044;8.686;2024-01-07T07:36:26;99389.22;;;5.61;80.82
83424;BME280;73355;49.044;8.686;2024-01-07T07:38:51;99401.59;;;5.66;80.28
83424;BME280;73355;49.044;8.686;2024-01-07T07:41:16;99399.66;;;5.70;80.35
83424;BME280;73355;49.044;8.686;2024-01-07T07:43:42;99397.38;;;5.75;80.30
83424;BME280;73355;49.044;8.686;2024-01-07T07:46:07;99400.91;;;5.83;80.41
83424;BME280;73355;49.044;8.686;2024-01-07T07:48:32;99403.28;;;5.88;79.85
83424;BME280;73355;49.044;8.686;2024-01-07T07:50:58;99402.91;;;5.90;79.64
83424;BME280;73355;49.044;8.686;2024-01-07T07:53:23;99402.84;;;5.86;79.14
83424;BME280;73355;49.044;8.686;2024-01-07T07:55:48;99405.53;;;5.82;78.96
83424;BME280;73355;49.044;8.686;2024-01-07T07:58:15;99411.28;;;5.77;79.00
83424;BME280;73355;49.044;8.686;2024-01-07T08:00:40;99407.44;;;5.75;78.98
83424;BME280;73355;49.044;8.686;2024-01-07T08:03:05;99407.44;;;5.75;78.98
83424;BME280;73355;49.044;8.686;2024-01-07T08:05:31;99409.31;;;5.71;78.66
83424;BME280;73355;49.044;8.686;2024-01-07T08:07:56;99410.47;;;5.70;78.83
83424;BME280;73355;49.044;8.686;2024-01-07T08:10:22;99410.50;;;5.73;79.36
83424;BME280;73355;49.044;8.686;2024-01-07T08:12:48;99415.19;;;5.80;79.05
83424;BME280;73355;49.044;8.686;2024-01-07T08:15:14;99416.31;;;5.79;79.19
83424;BME280;73355;49.044;8.686;2024-01-07T08:17:40;99415.53;;;5.78;78.59
83424;BME280;73355;49.044;8.686;2024-01-07T08:20:05;99425.97;;;5.80;78.79
83424;BME280;73355;49.044;8.686;2024-01-07T08:22:31;99430.19;;;5.81;79.22
83424;BME280;73355;49.044;8.686;2024-01-07T08:24:56;99430.59;;;5.83;79.27
83424;BME280;73355;49.044;8.686;2024-01-07T08:27:22;99438.72;;;5.83;79.25
83424;BME280;73355;49.044;8.686;2024-01-07T08:29:47;99437.97;;;5.86;78.78
83424;BME280;73355;49.044;8.686;2024-01-07T08:32:12;99434.94;;;5.91;78.88
83424;BME280;73355;49.044;8.686;2024-01-07T08:34:38;99436.91;;;5.98;78.74
83424;BME280;73355;49.044;8.686;2024-01-07T08:37:04;99439.19;;;5.96;78.72
83424;BME280;73355;49.044;8.686;2024-01-07T08:39:30;99448.03;;;5.93;78.71
83424;BME280;73355;49.044;8.686;2024-01-07T08:41:56;99444.97;;;5.94;78.74
83424;BME280;73355;49.044;8.686;2024-01-07T08:44:21;99441.91;;;5.96;78.39
83424;BME280;73355;49.044;8.686;2024-01-07T08:46:46;99445.38;;;6.00;78.27
83424;BME280;73355;49.044;8.686;2024-01-07T08:49:12;99450.41;;;6.01;78.77
83424;BME280;73355;49.044;8.686;2024-01-07T08:51:39;99440.38;;;6.05;78.60
83424;BME280;73355;49.044;8.686;2024-01-07T08:54:04;99455.09;;;6.11;78.87
83424;BME280;73355;49.044;8.686;2024-01-07T08:56:29;99452.38;;;6.11;78.41
83424;BME280;73355;49.044;8.686;2024-01-07T08:58:55;99459.34;;;6.09;77.54
83424;BME280;73355;49.044;8.686;2024-01-07T09:01:20;99462.03;;;6.09;77.80
83424;BME280;73355;49.044;8.686;2024-01-07T09:03:45;99460.84;;;6.06;77.38
83424;BME280;73355;49.044;8.686;2024-01-07T09:06:11;99460.09;;;6.06;77.25
83424;BME280;73355;49.044;8.686;2024-01-07T09:08:36;99462.81;;;6.09;77.58
83424;BME280;73355;49.044;8.686;2024-01-07T09:11:04;99468.59;;;6.11;76.92
83424;BME280;73355;49.044;8.686;2024-01-07T09:13:31;99472.06;;;6.12;76.58
83424;BME280;73355;49.044;8.686;2024-01-07T09:15:59;99479.44;;;6.15;76.51
83424;BME280;73355;49.044;8.686;2024-01-07T09:18:24;99472.47;;;6.17;75.96
83424;BME280;73355;49.044;8.686;2024-01-07T09:20:49;99473.28;;;6.21;75.29
83424;BME280;73355;49.044;8.686;2024-01-07T09:23:15;99481.78;;;6.23;74.65
83424;BME280;73355;49.044;8.686;2024-01-07T09:25:41;99477.94;;;6.28;74.79
83424;BME280;73355;49.044;8.686;2024-01-07T09:28:06;99477.56;;;6.30;74.28
83424;BME280;73355;49.044;8.686;2024-01-07T09:30:32;99488.75;;;6.28;73.61
83424;BME280;73355;49.044;8.686;2024-01-07T09:32:57;99486.41;;;6.27;73.09
83424;BME280;73355;49.044;8.686;2024-01-07T09:35:23;99493.78;;;6.26;72.75
83424;BME280;73355;49.044;8.686;2024-01-07T09:37:48;99491.06;;;6.30;73.21
83424;BME280;73355;49.044;8.686;2024-01-07T09:40:17;99503.84;;;6.36;72.61
83424;BME280;73355;49.044;8.686;2024-01-07T09:42:43;99491.88;;;6.37;72.54
83424;BME280;73355;49.044;8.686;2024-01-07T09:45:12;99494.59;;;6.37;72.39
83424;BME280;73355;49.044;8.686;2024-01-07T09:47:38;99497.25;;;6.34;71.38
83424;BME280;73355;49.044;8.686;2024-01-07T09:50:05;99501.13;;;6.33;70.94
83424;BME280;73355;49.044;8.686;2024-01-07T09:52:32;99502.66;;;6.30;70.74
83424;BME280;73355;49.044;8.686;2024-01-07T09:54:59;99506.09;;;6.27;70.54
83424;BME280;73355;49.044;8.686;2024-01-07T09:57:25;99499.13;;;6.22;70.34
83424;BME280;73355;49.044;8.686;2024-01-07T09:59:51;99501.09;;;6.26;70.54
83424;BME280;73355;49.044;8.686;2024-01-07T10:02:16;99503.41;;;6.27;70.29
83424;BME280;73355;49.044;8.686;2024-01-07T10:04:42;99511.91;;;6.26;70.25
83424;BME280;73355;49.044;8.686;2024-01-07T10:07:08;99513.44;;;6.23;70.04
83424;BME280;73355;49.044;8.686;2024-01-07T10:09:33;99516.13;;;6.27;70.23
83424;BME280;73355;49.044;8.686;2024-01-07T10:11:59;99520.81;;;6.26;69.36
83424;BME280;73355;49.044;8.686;2024-01-07T10:14:24;99514.63;;;6.26;69.67
83424;BME280;73355;49.044;8.686;2024-01-07T10:16:51;99518.44;;;6.21;69.08
83424;BME280;73355;49.044;8.686;2024-01-07T10:19:23;99523.41;;;6.08;68.38
83424;BME280;73355;49.044;8.686;2024-01-07T10:22:03;99529.91;;;6.00;67.36
83424;BME280;73355;49.044;8.686;2024-01-07T10:24:55;99523.25;;;5.87;67.03
83424;BME280;73355;49.044;8.686;2024-01-07T10:27:22;99525.13;;;5.79;67.05
83424;BME280;73355;49.044;8.686;2024-01-07T10:29:47;99525.50;;;5.78;67.01
83424;BME280;73355;49.044;8.686;2024-01-07T10:32:18;99528.19;;;5.78;67.48
83424;BME280;73355;49.044;8.686;2024-01-07T10:34:46;99529.38;;;5.80;67.65
83424;BME280;73355;49.044;8.686;2024-01-07T10:37:12;99523.19;;;5.80;66.66
83424;BME280;73355;49.044;8.686;2024-01-07T10:39:38;99534.38;;;5.75;66.62
83424;BME280;73355;49.044;8.686;2024-01-07T10:42:04;99537.78;;;5.72;66.59
83424;BME280;73355;49.044;8.686;2024-01-07T10:44:31;99545.16;;;5.75;67.09
83424;BME280;73355;49.044;8.686;2024-01-07T10:46:57;99537.81;;;5.75;66.33
83424;BME280;73355;49.044;8.686;2024-01-07T10:49:24;99539.75;;;5.75;66.17
83424;BME280;73355;49.044;8.686;2024-01-07T10:52:03;99540.13;;;5.73;65.86
83424;BME280;73355;49.044;8.686;2024-01-07T10:54:32;99540.91;;;5.74;66.21
83424;BME280;73355;49.044;8.686;2024-01-07T10:57:00;99536.66;;;5.73;65.91
83424;BME280;73355;49.044;8.686;2024-01-07T10:59:31;99537.03;;;5.71;65.94
83424;BME280;73355;49.044;8.686;2024-01-07T11:01:58;99540.13;;;5.73;65.52
83424;BME280;73355;49.044;8.686;2024-01-07T11:04:37;99543.22;;;5.75;65.59
83424;BME280;73355;49.044;8.686;2024-01-07T11:10:18;99540.25;;;5.88;65.14
83424;BME280;73355;49.044;8.686;2024-01-07T11:12:53;99542.56;;;5.89;64.87
83424;BME280;73355;49.044;8.686;2024-01-07T11:15:50;99539.50;;;5.91;64.99
83424;BME280;73355;49.044;8.686;2024-01-07T11:18:20;99544.53;;;5.92;65.12
83424;BME280;73355;49.044;8.686;2024-01-07T11:20:46;99548.41;;;5.95;65.13
83424;BME280;73355;49.044;8.686;2024-01-07T11:23:32;99548.41;;;5.95;64.35
83424;BME280;73355;49.044;8.686;2024-01-07T11:26:06;99544.50;;;5.89;64.39
83424;BME280;73355;49.044;8.686;2024-01-07T11:28:52;99551.78;;;5.85;63.72
83424;BME280;73355;49.044;8.686;2024-01-07T11:31:19;99557.97;;;5.85;63.50
83424;BME280;73355;49.044;8.686;2024-01-07T11:33:45;99552.19;;;5.87;63.80
83424;BME280;73355;49.044;8.686;2024-01-07T11:36:12;99556.41;;;5.84;63.58
83424;BME280;73355;49.044;8.686;2024-01-07T11:38:40;99554.44;;;5.81;63.79
83424;BME280;73355;49.044;8.686;2024-01-07T11:41:06;99555.19;;;5.78;63.39
83424;BME280;73355;49.044;8.686;2024-01-07T11:43:32;99552.88;;;5.76;62.76
83424;BME280;73355;49.044;8.686;2024-01-07T11:46:00;99553.22;;;5.68;62.10
83424;BME280;73355;49.044;8.686;2024-01-07T11:48:26;99555.84;;;5.61;63.01
83424;BME280;73355;49.044;8.686;2024-01-07T11:50:51;99557.75;;;5.60;63.04
83424;BME280;73355;49.044;8.686;2024-01-07T11:53:16;99549.72;;;5.64;63.08
83424;BME280;73355;49.044;8.686;2024-01-07T11:55:42;99554.66;;;5.58;62.99
83424;BME280;73355;49.044;8.686;2024-01-07T11:58:07;99561.59;;;5.56;63.05
83424;BME280;73355;49.044;8.686;2024-01-07T12:00:34;99559.63;;;5.53;63.16
83424;BME280;73355;49.044;8.686;2024-01-07T12:03:00;99568.91;;;5.52;63.27
83424;BME280;73355;49.044;8.686;2024-01-07T12:05:27;99568.91;;;5.52;63.50
83424;BME280;73355;49.044;8.686;2024-01-07T12:07:52;99564.22;;;5.49;62.91
83424;BME280;73355;49.044;8.686;2024-01-07T12:10:18;99566.47;;;5.43;63.00
83424;BME280;73355;49.044;8.686;2024-01-07T12:12:44;99562.22;;;5.38;63.37
83424;BME280;73355;49.044;8.686;2024-01-07T12:15:10;99565.28;;;5.37;63.45
83424;BME280;73355;49.044;8.686;2024-01-07T12:17:40;99562.22;;;5.38;63.61
83424;BME280;73355;49.044;8.686;2024-01-07T12:20:05;99564.53;;;5.40;63.90
83424;BME280;73355;49.044;8.686;2024-01-07T12:22:32;99569.16;;;5.39;63.30
83424;BME280;73355;49.044;8.686;2024-01-07T12:25:07;99567.59;;;5.38;62.88
83424;BME280;73355;49.044;8.686;2024-01-07T12:27:34;99572.16;;;5.31;62.91
83424;BME280;73355;49.044;8.686;2024-01-07T12:30:00;99566.38;;;5.29;63.17
83424;BME280;73355;49.044;8.686;2024-01-07T12:32:26;99566.72;;;5.24;63.42
83424;BME280;73355;49.044;8.686;2024-01-07T12:34:52;99563.25;;;5.27;63.39
83424;BME280;73355;49.044;8.686;2024-01-07T12:37:17;99559.00;;;5.26;62.90
83424;BME280;73355;49.044;8.686;2024-01-07T12:39:43;99566.72;;;5.24;63.71
83424;BME280;73355;49.044;8.686;2024-01-07T12:42:08;99566.38;;;5.29;63.71
83424;BME280;73355;49.044;8.686;2024-01-07T12:44:35;99575.59;;;5.28;63.27
83424;BME280;73355;49.044;8.686;2024-01-07T12:47:01;99574.84;;;5.31;63.53
83424;BME280;73355;49.044;8.686;2024-01-07T12:49:27;99576.41;;;5.32;63.38
83424;BME280;73355;49.044;8.686;2024-01-07T12:51:52;99575.28;;;5.33;63.07
83424;BME280;73355;49.044;8.686;2024-01-07T12:54:17;99586.84;;;5.33;63.41
83424;BME280;73355;49.044;8.686;2024-01-07T12:56:44;99588.41;;;5.34;63.24
83424;BME280;73355;49.044;8.686;2024-01-07T12:59:09;99583.78;;;5.35;63.39
83424;BME280;73355;49.044;8.686;2024-01-07T13:01:34;99590.72;;;5.36;63.30
83424;BME280;73355;49.044;8.686;2024-01-07T13:04:01;99593.03;;;5.37;63.15
83424;BME280;73355;49.044;8.686;2024-01-07T13:06:27;99598.03;;;5.35;62.89
83424;BME280;73355;49.044;8.686;2024-01-07T13:08:53;99599.59;;;5.36;62.63